sensor_id;sensor_type;location;lat;lon;timestamp;pressure;altitude;pressure_sealevel;temperature;humidity
20622;BME280;10470;42.670;23.354;2023-02-23T00:01:22;94670.44;;;7.74;100.00
20622;BME280;10470;42.670;23.354;2023-02-23T00:03:49;94673.66;;;7.56;100.00
20622;BME280;10470;42.670;23.354;2023-02-23T00:06:16;94666.72;;;7.55;100.00
20622;BME280;10470;42.670;23.354;2023-02-23T00:08:41;94668.47;;;7.62;100.00
20622;BME280;10470;42.670;23.354;2023-02-23T00:11:11;94672.81;;;7.72;100.00
20622;BME280;10470;42.670;23.354;2023-02-23T00:13:37;94679.19;;;7.53;100.00
20622;BME280;10470;42.670;23.354;2023-02-23T00:16:13;94683.44;;;7.66;100.00
20622;BME280;10470;42.670;23.354;2023-02-23T00:18:50;94677.13;;;7.57;100.00
20622;BME280;10470;42.670;23.354;2023-02-23T00:23:53;94677.00;;;7.48;100.00
20622;BME280;10470;42.670;23.354;2023-02-23T00:26:21;94678.31;;;7.56;100.00
20622;BME280;10470;42.670;23.354;2023-02-23T00:28:52;94660.09;;;7.56;100.00
20622;BME280;10470;42.670;23.354;2023-02-23T00:31:18;94681.09;;;7.39;100.00
20622;BME280;10470;42.670;23.354;2023-02-23T00:33:50;94676.78;;;7.42;100.00
20622;BME280;10470;42.670;23.354;2023-02-23T00:36:18;94674.88;;;7.55;100.00
20622;BME280;10470;42.670;23.354;2023-02-23T00:38:45;94680.88;;;7.47;100.00
20622;BME280;10470;42.670;23.354;2023-02-23T00:41:13;94682.31;;;7.51;100.00
20622;BME280;10470;42.670;23.354;2023-02-23T00:43:41;94681.69;;;7.60;100.00
20622;BME280;10470;42.670;23.354;2023-02-23T00:46:15;94678.22;;;7.59;100.00
20622;BME280;10470;42.670;23.354;2023-02-23T00:48:43;94682.31;;;7.51;100.00
20622;BME280;10470;42.670;23.354;2023-02-23T00:51:09;94678.19;;;7.47;100.00
20622;BME280;10470;42.670;23.354;2023-02-23T00:53:35;94674.59;;;7.50;100.00
20622;BME280;10470;42.670;23.354;2023-02-23T00:56:03;94650.50;;;7.39;100.00
20622;BME280;10470;42.670;23.354;2023-02-23T00:58:29;94678.56;;;7.61;100.00
20622;BME280;10470;42.670;23.354;2023-02-23T01:00:56;94678.94;;;7.18;100.00
20622;BME280;10470;42.670;23.354;2023-02-23T01:03:24;94666.22;;;7.31;100.00
20622;BME280;10470;42.670;23.354;2023-02-23T01:05:49;94677.38;;;7.33;100.00
20622;BME280;10470;42.670;23.354;2023-02-23T01:08:16;94673.00;;;7.52;100.00
20622;BME280;10470;42.670;23.354;2023-02-23T01:10:43;94676.78;;;7.55;100.00
20622;BME280;10470;42.670;23.354;2023-02-23T01:13:09;94673.44;;;7.51;100.00
20622;BME280;10470;42.670;23.354;2023-02-23T01:15:42;94667.31;;;7.34;100.00
20622;BME280;10470;42.670;23.354;2023-02-23T01:18:09;94668.19;;;7.43;100.00
20622;BME280;10470;42.670;23.354;2023-02-23T01:20:36;94673.97;;;7.46;100.00
20622;BME280;10470;42.670;23.354;2023-02-23T01:23:03;94671.34;;;7.42;100.00
20622;BME280;10470;42.670;23.354;2023-02-23T01:25:29;94672.69;;;7.50;100.00
20622;BME280;10470;42.670;23.354;2023-02-23T01:27:54;94669.41;;;7.42;100.00
20622;BME280;10470;42.670;23.354;2023-02-23T01:30:20;94671.34;;;7.42;100.00
20622;BME280;10470;42.670;23.354;2023-02-23T01:32:46;94657.25;;;7.34;100.00
20622;BME280;10470;42.670;23.354;2023-02-23T01:35:12;94658.78;;;7.48;100.00
20622;BME280;10470;42.670;23.354;2023-02-23T01:37:40;94672.81;;;7.30;100.00
20622;BME280;10470;42.670;23.354;2023-02-23T01:40:14;94669.31;;;6.88;100.00
20622;BME280;10470;42.670;23.354;2023-02-23T01:42:43;94666.59;;;7.17;100.00
20622;BME280;10470;42.670;23.354;2023-02-23T01:45:29;94669.38;;;7.13;100.00
20622;BME280;10470;42.670;23.354;2023-02-23T01:47:58;94666.03;;;7.09;100.00
20622;BME280;10470;42.670;23.354;2023-02-23T01:50:27;94665.22;;;6.96;100.00
20622;BME280;10470;42.670;23.354;2023-02-23T01:52:54;94660.03;;;7.02;100.00
20622;BME280;10470;42.670;23.354;2023-02-23T01:55:22;94658.19;;;6.98;100.00
20622;BME280;10470;42.670;23.354;2023-02-23T01:58:06;94662.81;;;7.14;100.00
20622;BME280;10470;42.670;23.354;2023-02-23T02:00:33;94659.91;;;7.21;100.00
20622;BME280;10470;42.670;23.354;2023-02-23T02:03:05;94654.78;;;7.11;100.00
20622;BME280;10470;42.670;23.354;2023-02-23T02:05:35;94654.44;;;7.09;100.00
20622;BME280;10470;42.670;23.354;2023-02-23T02:08:03;94657.16;;;7.09;100.00
20622;BME280;10470;42.670;23.354;2023-02-23T02:10:30;94650.63;;;7.06;100.00
20622;BME280;10470;42.670;23.354;2023-02-23T02:13:06;94654.97;;;6.87;100.00
20622;BME280;10470;42.670;23.354;2023-02-23T02:15:38;94653.13;;;6.84;100.00
20622;BME280;10470;42.670;23.354;2023-02-23T02:18:21;94662.47;;;6.67;100.00
20622;BME280;10470;42.670;23.354;2023-02-23T02:21:17;94655.69;;;6.75;100.00
20622;BME280;10470;42.670;23.354;2023-02-23T02:23:54;94653.63;;;6.79;100.00
20622;BME280;10470;42.670;23.354;2023-02-23T02:34:48;94662.47;;;6.67;100.00
20622;BME280;10470;42.670;23.354;2023-02-23T02:42:56;94669.06;;;6.66;100.00
20622;BME280;10470;42.670;23.354;2023-02-23T02:45:32;94658.41;;;6.59;100.00
20622;BME280;10470;42.670;23.354;2023-02-23T02:48:14;94655.81;;;6.39;100.00
20622;BME280;10470;42.670;23.354;2023-02-23T02:50:53;94653.69;;;6.46;100.00
20622;BME280;10470;42.670;23.354;2023-02-23T02:56:08;94653.25;;;6.64;100.00
20622;BME280;10470;42.670;23.354;2023-02-23T02:58:36;94652.91;;;6.46;100.00
20622;BME280;10470;42.670;23.354;2023-02-23T03:01:08;94654.34;;;6.50;100.00
20622;BME280;10470;42.670;23.354;2023-02-23T03:03:55;94652.00;;;6.52;100.00
20622;BME280;10470;42.670;23.354;2023-02-23T03:06:58;94653.50;;;6.37;100.00
20622;BME280;10470;42.670;23.354;2023-02-23T03:09:54;94653.94;;;6.36;100.00
20622;BME280;10470;42.670;23.354;2023-02-23T03:21:41;94662.78;;;6.20;100.00
20622;BME280;10470;42.670;23.354;2023-02-23T03:24:57;94663.91;;;6.22;100.00
20622;BME280;10470;42.670;23.354;2023-02-23T03:27:49;94654.19;;;6.25;100.00
20622;BME280;10470;42.670;23.354;2023-02-23T03:36:59;94666.28;;;5.84;100.00
20622;BME280;10470;42.670;23.354;2023-02-23T03:39:51;94664.19;;;5.91;100.00
20622;BME280;10470;42.670;23.354;2023-02-23T03:42:38;94678.13;;;5.90;100.00
20622;BME280;10470;42.670;23.354;2023-02-23T03:45:24;94668.81;;;5.91;100.00
20622;BME280;10470;42.670;23.354;2023-02-23T03:48:11;94672.59;;;5.97;100.00
20622;BME280;10470;42.670;23.354;2023-02-23T03:51:01;94674.94;;;5.95;100.00
20622;BME280;10470;42.670;23.354;2023-02-23T03:54:16;94675.63;;;5.99;100.00
20622;BME280;10470;42.670;23.354;2023-02-23T03:57:04;94680.91;;;5.86;100.00
20622;BME280;10470;42.670;23.354;2023-02-23T03:59:56;94684.84;;;5.82;100.00
20622;BME280;10470;42.670;23.354;2023-02-23T04:02:45;94684.09;;;5.81;100.00
20622;BME280;10470;42.670;23.354;2023-02-23T04:05:33;94684.50;;;5.80;100.00
20622;BME280;10470;42.670;23.354;2023-02-23T04:08:20;94685.50;;;5.69;100.00
20622;BME280;10470;42.670;23.354;2023-02-23T04:14:17;94689.03;;;5.66;100.00
20622;BME280;10470;42.670;23.354;2023-02-23T04:16:45;94683.19;;;5.68;100.00
20622;BME280;10470;42.670;23.354;2023-02-23T04:19:11;94686.19;;;5.74;100.00
20622;BME280;10470;42.670;23.354;2023-02-23T04:21:36;94684.03;;;5.65;100.00
20622;BME280;10470;42.670;23.354;2023-02-23T04:24:02;94679.69;;;5.51;100.00
20622;BME280;10470;42.670;23.354;2023-02-23T04:26:28;94682.88;;;5.66;100.00
20622;BME280;10470;42.670;23.354;2023-02-23T04:28:53;94679.97;;;5.37;100.00
20622;BME280;10470;42.670;23.354;2023-02-23T04:31:18;94673.09;;;5.52;100.00
20622;BME280;10470;42.670;23.354;2023-02-23T04:33:44;94685.84;;;5.52;100.00
20622;BME280;10470;42.670;23.354;2023-02-23T04:36:10;94675.25;;;5.41;100.00
20622;BME280;10470;42.670;23.354;2023-02-23T04:38:35;94688.94;;;5.70;100.00
20622;BME280;10470;42.670;23.354;2023-02-23T04:41:01;94686.34;;;5.66;100.00
20622;BME280;10470;42.670;23.354;2023-02-23T04:43:26;94685.84;;;5.52;100.00
20622;BME280;10470;42.670;23.354;2023-02-23T04:45:51;94671.16;;;5.13;100.00
20622;BME280;10470;42.670;23.354;2023-02-23T04:48:17;94672.28;;;5.35;100.00
20622;BME280;10470;42.670;23.354;2023-02-23T04:50:43;94672.81;;;5.26;100.00
20622;BME280;10470;42.670;23.354;2023-02-23T04:53:08;94679.06;;;5.23;100.00
20622;BME280;10470;42.670;23.354;2023-02-23T04:55:33;94680.13;;;5.30;100.00
20622;BME280;10470;42.670;23.354;2023-02-23T04:58:00;94684.19;;;5.38;100.00
20622;BME280;10470;42.670;23.354;2023-02-23T05:00:27;94681.84;;;5.20;100.00
20622;BME280;10470;42.670;23.354;2023-02-23T05:02:54;94685.72;;;5.19;100.00
20622;BME280;10470;42.670;23.354;2023-02-23T05:05:19;94677.16;;;5.24;100.00
20622;BME280;10470;42.670;23.354;2023-02-23T05:07:45;94679.06;;;5.23;100.00
20622;BME280;10470;42.670;23.354;2023-02-23T05:10:11;94687.31;;;5.16;100.00
20622;BME280;10470;42.670;23.354;2023-02-23T05:12:37;94679.53;;;5.18;100.00
20622;BME280;10470;42.670;23.354;2023-02-23T05:15:02;94686.63;;;5.32;100.00
20622;BME280;10470;42.670;23.354;2023-02-23T05:17:28;94689.03;;;5.26;100.00
20622;BME280;10470;42.670;23.354;2023-02-23T05:19:53;94689.34;;;5.32;100.00
20622;BME280;10470;42.670;23.354;2023-02-23T05:22:19;94696.72;;;5.28;100.00
20622;BME280;10470;42.670;23.354;2023-02-23T05:24:44;94699.84;;;5.26;100.00
20622;BME280;10470;42.670;23.354;2023-02-23T05:27:11;94704.28;;;5.37;100.00
20622;BME280;10470;42.670;23.354;2023-02-23T05:29:38;94700.66;;;5.23;100.00
20622;BME280;10470;42.670;23.354;2023-02-23T05:32:06;94687.28;;;4.96;100.00
20622;BME280;10470;42.670;23.354;2023-02-23T05:34:32;94700.94;;;5.09;100.00
20622;BME280;10470;42.670;23.354;2023-02-23T05:36:58;94685.72;;;5.19;100.00
20622;BME280;10470;42.670;23.354;2023-02-23T05:39:24;94698.69;;;5.28;100.00
20622;BME280;10470;42.670;23.354;2023-02-23T05:41:49;94702.34;;;5.37;100.00
20622;BME280;10470;42.670;23.354;2023-02-23T05:44:15;94701.53;;;5.40;100.00
20622;BME280;10470;42.670;23.354;2023-02-23T05:46:41;94704.97;;;5.41;100.00
20622;BME280;10470;42.670;23.354;2023-02-23T05:49:06;94726.13;;;5.46;100.00
20622;BME280;10470;42.670;23.354;2023-02-23T05:51:33;94717.16;;;5.29;100.00
20622;BME280;10470;42.670;23.354;2023-02-23T05:53:59;94714.69;;;5.38;100.00
20622;BME280;10470;42.670;23.354;2023-02-23T05:56:27;94706.97;;;5.37;100.00
20622;BME280;10470;42.670;23.354;2023-02-23T05:58:55;94730.34;;;5.67;100.00
20622;BME280;10470;42.670;23.354;2023-02-23T06:01:25;94739.69;;;5.62;100.00
20622;BME280;10470;42.670;23.354;2023-02-23T06:03:51;94740.25;;;5.74;100.00
20622;BME280;10470;42.670;23.354;2023-02-23T06:06:17;94734.84;;;5.74;100.00
20622;BME280;10470;42.670;23.354;2023-02-23T06:08:43;94735.88;;;5.80;100.00
20622;BME280;10470;42.670;23.354;2023-02-23T06:11:09;94740.44;;;5.83;100.00
20622;BME280;10470;42.670;23.354;2023-02-23T06:13:34;94748.38;;;5.94;100.00
20622;BME280;10470;42.670;23.354;2023-02-23T06:16:00;94745.09;;;6.02;100.00
20622;BME280;10470;42.670;23.354;2023-02-23T06:18:26;94743.84;;;6.07;100.00
20622;BME280;10470;42.670;23.354;2023-02-23T06:20:51;94746.28;;;6.01;100.00
20622;BME280;10470;42.670;23.354;2023-02-23T06:23:17;94745.56;;;6.17;100.00
20622;BME280;10470;42.670;23.354;2023-02-23T06:25:44;94745.75;;;6.26;100.00
20622;BME280;10470;42.670;23.354;2023-02-23T06:28:10;94756.56;;;6.26;100.00
20622;BME280;10470;42.670;23.354;2023-02-23T06:30:36;94753.88;;;6.26;100.00
20622;BME280;10470;42.670;23.354;2023-02-23T06:33:02;94761.94;;;6.46;100.00
20622;BME280;10470;42.670;23.354;2023-02-23T06:35:29;94756.84;;;6.32;100.00
20622;BME280;10470;42.670;23.354;2023-02-23T06:37:55;94758.03;;;6.47;100.00
20622;BME280;10470;42.670;23.354;2023-02-23T06:40:21;94764.06;;;6.55;100.00
20622;BME280;10470;42.670;23.354;2023-02-23T06:42:46;94758.13;;;6.76;100.00
20622;BME280;10470;42.670;23.354;2023-02-23T06:45:12;94763.16;;;6.78;100.00
20622;BME280;10470;42.670;23.354;2023-02-23T06:47:38;94760.09;;;6.92;100.00
20622;BME280;10470;42.670;23.354;2023-02-23T06:50:05;94771.09;;;6.85;100.00
20622;BME280;10470;42.670;23.354;2023-02-23T06:52:31;94776.94;;;7.00;100.00
20622;BME280;10470;42.670;23.354;2023-02-23T06:54:57;94773.13;;;7.14;100.00
20622;BME280;10470;42.670;23.354;2023-02-23T06:57:22;94774.50;;;7.06;100.00
20622;BME280;10470;42.670;23.354;2023-02-23T06:59:48;94772.09;;;7.24;100.00
20622;BME280;10470;42.670;23.354;2023-02-23T07:02:13;94770.19;;;7.08;100.00
20622;BME280;10470;42.670;23.354;2023-02-23T07:04:39;94773.00;;;7.34;100.00
20622;BME280;10470;42.670;23.354;2023-02-23T07:07:04;94771.38;;;7.36;100.00
20622;BME280;10470;42.670;23.354;2023-02-23T07:09:30;94770.63;;;7.36;100.00
20622;BME280;10470;42.670;23.354;2023-02-23T07:11:55;94778.16;;;7.44;100.00
20622;BME280;10470;42.670;23.354;2023-02-23T07:14:21;94776.50;;;7.63;100.00
20622;BME280;10470;42.670;23.354;2023-02-23T07:16:46;94766.66;;;7.70;100.00
20622;BME280;10470;42.670;23.354;2023-02-23T07:19:12;94769.59;;;7.75;100.00
20622;BME280;10470;42.670;23.354;2023-02-23T07:21:37;94784.72;;;7.60;100.00
20622;BME280;10470;42.670;23.354;2023-02-23T07:24:03;94778.41;;;7.79;100.00
20622;BME280;10470;42.670;23.354;2023-02-23T07:26:31;94781.09;;;7.79;100.00
20622;BME280;10470;42.670;23.354;2023-02-23T07:28:58;94772.56;;;7.94;100.00
20622;BME280;10470;42.670;23.354;2023-02-23T07:31:24;94778.09;;;7.90;100.00
20622;BME280;10470;42.670;23.354;2023-02-23T07:33:51;94774.47;;;8.09;100.00
20622;BME280;10470;42.670;23.354;2023-02-23T07:36:22;94764.59;;;8.16;100.00
20622;BME280;10470;42.670;23.354;2023-02-23T07:38:47;94771.97;;;8.15;100.00
20622;BME280;10470;42.670;23.354;2023-02-23T07:41:13;94770.25;;;8.34;100.00
20622;BME280;10470;42.670;23.354;2023-02-23T07:43:39;94760.31;;;8.44;100.00
20622;BME280;10470;42.670;23.354;2023-02-23T07:46:04;94755.63;;;8.44;100.00
20622;BME280;10470;42.670;23.354;2023-02-23T07:48:30;94759.00;;;8.61;100.00
20622;BME280;10470;42.670;23.354;2023-02-23T07:50:56;94760.31;;;8.57;100.00
20622;BME280;10470;42.670;23.354;2023-02-23T07:53:22;94761.63;;;8.78;100.00
20622;BME280;10470;42.670;23.354;2023-02-23T07:55:57;94748.47;;;8.76;100.00
20622;BME280;10470;42.670;23.354;2023-02-23T07:58:23;94759.22;;;8.92;100.00
20622;BME280;10470;42.670;23.354;2023-02-23T08:00:48;94748.41;;;9.14;100.00
20622;BME280;10470;42.670;23.354;2023-02-23T08:03:13;94752.63;;;9.15;100.00
20622;BME280;10470;42.670;23.354;2023-02-23T08:05:39;94761.13;;;9.17;100.00
20622;BME280;10470;42.670;23.354;2023-02-23T08:08:05;94757.47;;;9.33;100.00
20622;BME280;10470;42.670;23.354;2023-02-23T08:10:31;94759.53;;;9.42;100.00
20622;BME280;10470;42.670;23.354;2023-02-23T08:12:57;94754.84;;;9.43;100.00
20622;BME280;10470;42.670;23.354;2023-02-23T08:15:22;94757.94;;;9.32;100.00
20622;BME280;10470;42.670;23.354;2023-02-23T08:17:48;94752.66;;;9.50;100.00
20622;BME280;10470;42.670;23.354;2023-02-23T08:20:13;94751.28;;;9.68;100.00
20622;BME280;10470;42.670;23.354;2023-02-23T08:22:39;94747.69;;;9.71;100.00
20622;BME280;10470;42.670;23.354;2023-02-23T08:25:04;94754.13;;;9.86;100.00
20622;BME280;10470;42.670;23.354;2023-02-23T08:27:33;94755.25;;;9.98;100.00
20622;BME280;10470;42.670;23.354;2023-02-23T08:29:59;94761.53;;;10.07;100.00
20622;BME280;10470;42.670;23.354;2023-02-23T08:32:28;94762.63;;;10.19;100.00
20622;BME280;10470;42.670;23.354;2023-02-23T08:34:55;94762.53;;;10.23;100.00
20622;BME280;10470;42.670;23.354;2023-02-23T08:37:22;94765.09;;;10.48;100.00
20622;BME280;10470;42.670;23.354;2023-02-23T08:39:48;94771.13;;;10.21;100.00
20622;BME280;10470;42.670;23.354;2023-02-23T08:42:14;94763.84;;;10.40;100.00
20622;BME280;10470;42.670;23.354;2023-02-23T08:44:40;94770.41;;;10.52;100.00
20622;BME280;10470;42.670;23.354;2023-02-23T08:47:05;94757.91;;;10.64;100.00
20622;BME280;10470;42.670;23.354;2023-02-23T08:49:31;94765.84;;;10.80;100.00
20622;BME280;10470;42.670;23.354;2023-02-23T08:51:57;94767.28;;;11.12;100.00
20622;BME280;10470;42.670;23.354;2023-02-23T08:54:23;94756.53;;;10.59;100.00
20622;BME280;10470;42.670;23.354;2023-02-23T08:56:48;94752.00;;;10.65;100.00
20622;BME280;10470;42.670;23.354;2023-02-23T08:59:14;94756.47;;;10.90;100.00
20622;BME280;10470;42.670;23.354;2023-02-23T09:01:39;94764.09;;;11.23;100.00
20622;BME280;10470;42.670;23.354;2023-02-23T09:04:06;94758.53;;;11.36;100.00
20622;BME280;10470;42.670;23.354;2023-02-23T09:06:32;94767.03;;;11.29;100.00
20622;BME280;10470;42.670;23.354;2023-02-23T09:08:59;94764.72;;;11.27;100.00
20622;BME280;10470;42.670;23.354;2023-02-23T09:11:25;94758.06;;;11.28;100.00
20622;BME280;10470;42.670;23.354;2023-02-23T09:13:50;94760.84;;;11.47;100.00
20622;BME280;10470;42.670;23.354;2023-02-23T09:16:16;94753.97;;;11.14;100.00
20622;BME280;10470;42.670;23.354;2023-02-23T09:18:41;94753.97;;;11.14;100.00
20622;BME280;10470;42.670;23.354;2023-02-23T09:21:09;94750.97;;;11.58;100.00
20622;BME280;10470;42.670;23.354;2023-02-23T09:23:42;94753.53;;;11.62;100.00
20622;BME280;10470;42.670;23.354;2023-02-23T09:26:09;94761.13;;;11.86;100.00
20622;BME280;10470;42.670;23.354;2023-02-23T09:28:36;94760.38;;;12.13;100.00
20622;BME280;10470;42.670;23.354;2023-02-23T09:31:14;94749.91;;;11.84;100.00
20622;BME280;10470;42.670;23.354;2023-02-23T09:33:41;94757.63;;;12.03;100.00
20622;BME280;10470;42.670;23.354;2023-02-23T09:36:08;94754.91;;;12.22;100.00
20622;BME280;10470;42.670;23.354;2023-02-23T09:38:38;94760.81;;;12.20;100.00
20622;BME280;10470;42.670;23.354;2023-02-23T09:41:08;94761.16;;;12.04;100.00
20622;BME280;10470;42.670;23.354;2023-02-23T09:44:23;94765.47;;;12.38;100.00
20622;BME280;10470;42.670;23.354;2023-02-23T09:49:40;94759.19;;;12.56;100.00
20622;BME280;10470;42.670;23.354;2023-02-23T09:52:36;94757.38;;;12.86;100.00
20622;BME280;10470;42.670;23.354;2023-02-23T09:55:04;94746.53;;;13.01;100.00
20622;BME280;10470;42.670;23.354;2023-02-23T09:57:38;94749.81;;;13.15;98.03
20622;BME280;10470;42.670;23.354;2023-02-23T10:00:22;94747.44;;;13.07;95.48
20622;BME280;10470;42.670;23.354;2023-02-23T10:03:18;94747.56;;;13.13;95.74
20622;BME280;10470;42.670;23.354;2023-02-23T10:05:52;94755.22;;;13.24;94.01
20622;BME280;10470;42.670;23.354;2023-02-23T10:11:42;94746.84;;;13.51;93.50
20622;BME280;10470;42.670;23.354;2023-02-23T10:16:58;94746.28;;;13.86;87.70
20622;BME280;10470;42.670;23.354;2023-02-23T10:19:55;94741.78;;;14.13;85.31
20622;BME280;10470;42.670;23.354;2023-02-23T10:22:25;94737.91;;;14.05;84.77
20622;BME280;10470;42.670;23.354;2023-02-23T10:25:00;94735.38;;;14.01;83.84
20622;BME280;10470;42.670;23.354;2023-02-23T10:27:53;94739.81;;;14.28;82.40
20622;BME280;10470;42.670;23.354;2023-02-23T10:30:27;94736.69;;;14.50;79.26
20622;BME280;10470;42.670;23.354;2023-02-23T10:35:20;94725.09;;;14.55;76.63
20622;BME280;10470;42.670;23.354;2023-02-23T10:37:47;94721.25;;;14.68;75.80
20622;BME280;10470;42.670;23.354;2023-02-23T10:40:20;94719.69;;;14.61;74.67
20622;BME280;10470;42.670;23.354;2023-02-23T10:42:48;94712.34;;;14.73;73.63
20622;BME280;10470;42.670;23.354;2023-02-23T10:45:15;94719.19;;;14.62;75.07
20622;BME280;10470;42.670;23.354;2023-02-23T10:47:49;94714.72;;;14.80;73.38
20622;BME280;10470;42.670;23.354;2023-02-23T10:50:16;94709.97;;;15.57;72.03
20622;BME280;10470;42.670;23.354;2023-02-23T10:52:45;94716.59;;;15.91;69.33
20622;BME280;10470;42.670;23.354;2023-02-23T10:55:24;94704.88;;;16.48;68.03
20622;BME280;10470;42.670;23.354;2023-02-23T10:58:00;94711.53;;;16.36;66.43
20622;BME280;10470;42.670;23.354;2023-02-23T11:00:29;94704.56;;;16.41;66.09
20622;BME280;10470;42.670;23.354;2023-02-23T11:02:58;94701.22;;;16.31;64.67
20622;BME280;10470;42.670;23.354;2023-02-23T11:05:36;94699.09;;;16.78;64.43
20622;BME280;10470;42.670;23.354;2023-02-23T11:08:09;94703.03;;;17.03;61.97
20622;BME280;10470;42.670;23.354;2023-02-23T11:10:35;94693.16;;;17.28;60.38
20622;BME280;10470;42.670;23.354;2023-02-23T11:13:00;94695.03;;;17.65;59.68
20622;BME280;10470;42.670;23.354;2023-02-23T11:15:32;94696.81;;;17.14;58.52
20622;BME280;10470;42.670;23.354;2023-02-23T11:18:03;94690.38;;;17.88;58.17
20622;BME280;10470;42.670;23.354;2023-02-23T11:20:33;94685.34;;;17.86;57.09
20622;BME280;10470;42.670;23.354;2023-02-23T11:23:11;94686.16;;;18.26;56.67
20622;BME280;10470;42.670;23.354;2023-02-23T11:25:42;94686.38;;;18.96;54.66
20622;BME280;10470;42.670;23.354;2023-02-23T11:28:24;94680.66;;;18.38;53.46
20622;BME280;10470;42.670;23.354;2023-02-23T11:30:51;94688.13;;;19.05;54.52
20622;BME280;10470;42.670;23.354;2023-02-23T11:33:20;94671.25;;;19.19;52.92
20622;BME280;10470;42.670;23.354;2023-02-23T11:35:57;94681.63;;;19.66;51.83
20622;BME280;10470;42.670;23.354;2023-02-23T11:38:26;94679.06;;;19.15;51.71
20622;BME280;10470;42.670;23.354;2023-02-23T11:43:24;94676.56;;;19.17;51.45
20622;BME280;10470;42.670;23.354;2023-02-23T11:45:53;94674.81;;;19.03;52.00
20622;BME280;10470;42.670;23.354;2023-02-23T11:51:23;94670.72;;;19.27;50.19
20622;BME280;10470;42.670;23.354;2023-02-23T11:53:50;94669.50;;;19.16;50.09
20622;BME280;10470;42.670;23.354;2023-02-23T11:56:20;94670.38;;;19.53;49.79
20622;BME280;10470;42.670;23.354;2023-02-23T11:58:49;94669.53;;;19.80;49.54
20622;BME280;10470;42.670;23.354;2023-02-23T12:01:22;94668.44;;;19.36;49.88
20622;BME280;10470;42.670;23.354;2023-02-23T12:03:51;94661.84;;;19.56;49.82
20622;BME280;10470;42.670;23.354;2023-02-23T12:06:34;94668.25;;;19.17;50.01
20622;BME280;10470;42.670;23.354;2023-02-23T12:09:16;94669.97;;;19.32;49.61
20622;BME280;10470;42.670;23.354;2023-02-23T12:11:52;94667.81;;;19.72;48.22
20622;BME280;10470;42.670;23.354;2023-02-23T12:14:26;94670.94;;;20.64;46.78
20622;BME280;10470;42.670;23.354;2023-02-23T12:17:00;94661.72;;;19.79;48.18
20622;BME280;10470;42.670;23.354;2023-02-23T12:19:32;94661.19;;;19.86;48.69
20622;BME280;10470;42.670;23.354;2023-02-23T12:22:16;94654.25;;;20.10;48.55
20622;BME280;10470;42.670;23.354;2023-02-23T12:27:30;94657.09;;;19.98;47.90
20622;BME280;10470;42.670;23.354;2023-02-23T12:33:03;94650.91;;;19.23;49.50
20622;BME280;10470;42.670;23.354;2023-02-23T12:36:23;94647.44;;;19.11;50.00
20622;BME280;10470;42.670;23.354;2023-02-23T12:38:58;94639.84;;;19.28;49.73
20622;BME280;10470;42.670;23.354;2023-02-23T12:41:33;94642.91;;;19.13;49.99
20622;BME280;10470;42.670;23.354;2023-02-23T12:46:40;94639.72;;;18.70;50.98
20622;BME280;10470;42.670;23.354;2023-02-23T12:49:35;94644.78;;;19.47;49.88
20622;BME280;10470;42.670;23.354;2023-02-23T12:52:08;94644.97;;;18.96;50.43
20622;BME280;10470;42.670;23.354;2023-02-23T12:54:36;94641.50;;;19.54;49.69
20622;BME280;10470;42.670;23.354;2023-02-23T12:57:27;94647.66;;;19.18;50.25
20622;BME280;10470;42.670;23.354;2023-02-23T13:05:27;94636.88;;;19.09;50.16
20622;BME280;10470;42.670;23.354;2023-02-23T13:08:03;94631.25;;;19.43;50.17
20622;BME280;10470;42.670;23.354;2023-02-23T13:10:46;94635.56;;;19.33;50.38
20622;BME280;10470;42.670;23.354;2023-02-23T13:13:44;94641.03;;;19.44;49.93
20622;BME280;10470;42.670;23.354;2023-02-23T13:16:45;94636.63;;;19.65;49.11
20622;BME280;10470;42.670;23.354;2023-02-23T13:19:22;94633.19;;;19.54;48.61
20622;BME280;10470;42.670;23.354;2023-02-23T13:24:38;94633.66;;;19.58;48.95
20622;BME280;10470;42.670;23.354;2023-02-23T13:27:26;94628.91;;;18.94;49.61
20622;BME280;10470;42.670;23.354;2023-02-23T13:29:55;94627.81;;;19.14;49.72
20622;BME280;10470;42.670;23.354;2023-02-23T13:32:25;94626.94;;;18.61;50.44
20622;BME280;10470;42.670;23.354;2023-02-23T13:34:59;94629.59;;;19.12;49.59
20622;BME280;10470;42.670;23.354;2023-02-23T13:40:49;94618.44;;;18.53;51.05
20622;BME280;10470;42.670;23.354;2023-02-23T13:54:04;94627.31;;;19.16;49.98
20622;BME280;10470;42.670;23.354;2023-02-23T13:56:39;94624.09;;;19.06;49.92
20622;BME280;10470;42.670;23.354;2023-02-23T13:59:21;94637.66;;;18.98;49.91
20622;BME280;10470;42.670;23.354;2023-02-23T14:01:52;94638.19;;;19.03;49.34
20622;BME280;10470;42.670;23.354;2023-02-23T14:04:33;94627.44;;;18.71;49.44
20622;BME280;10470;42.670;23.354;2023-02-23T14:09:40;94618.41;;;18.76;49.10
20622;BME280;10470;42.670;23.354;2023-02-23T14:12:13;94629.66;;;18.95;49.05
20622;BME280;10470;42.670;23.354;2023-02-23T14:14:45;94627.19;;;18.69;49.11
20622;BME280;10470;42.670;23.354;2023-02-23T14:22:28;94622.72;;;17.93;52.74
20622;BME280;10470;42.670;23.354;2023-02-23T14:27:58;94602.47;;;17.19;55.75
20622;BME280;10470;42.670;23.354;2023-02-23T14:30:43;94610.19;;;17.09;56.89
20622;BME280;10470;42.670;23.354;2023-02-23T14:33:37;94606.97;;;17.16;57.59
20622;BME280;10470;42.670;23.354;2023-02-23T14:39:05;94615.63;;;16.92;60.18
20622;BME280;10470;42.670;23.354;2023-02-23T14:41:40;94622.25;;;16.69;61.07
20622;BME280;10470;42.670;23.354;2023-02-23T14:44:27;94621.25;;;16.72;61.97
20622;BME280;10470;42.670;23.354;2023-02-23T14:47:07;94618.06;;;16.42;63.52
20622;BME280;10470;42.670;23.354;2023-02-23T14:49:42;94615.31;;;16.42;64.67